Time;durP1;ratioP1;P1;durP2;ratioP2;P2;SDS_P1;SDS_P2;PMS_P1;PMS_P2;Temp;Humidity;BMP_temperature;BMP_pressure;BME280_temperature;BME280_humidity;BME280_pressure;Samples;Min_cycle;Max_cycle;Signal;HPM_P1;HPM_P2
2023/02/17 00:00:01;;;;;;;3.37;2.50;;;7.60;78.90;;;;;;4171069;28;20239;-66
2023/02/17 00:02:03;;;;;;;3.77;2.47;;;7.60;79.00;;;;;;4175744;28;20193;-65
2023/02/17 00:04:03;;;;;;;5.30;3.10;;;7.60;79.40;;;;;;4178867;28;20189;-69
2023/02/17 00:06:09;;;;;;;4.13;2.60;;;7.70;78.40;;;;;;4176334;28;20687;-68
2023/02/17 00:08:10;;;;;;;4.40;2.53;;;7.70;78.50;;;;;;4177278;28;20283;-67
2023/02/17 00:10:11;;;;;;;4.37;2.67;;;7.70;78.40;;;;;;4169422;28;20247;-66
2023/02/17 00:12:12;;;;;;;5.33;2.57;;;7.70;77.80;;;;;;4170818;28;20194;-67
2023/02/17 00:14:13;;;;;;;4.87;2.80;;;7.70;77.10;;;;;;4170777;28;20187;-67
2023/02/17 00:16:25;;;;;;;6.10;2.77;;;7.70;76.80;;;;;;4169262;28;20187;-67
2023/02/17 00:18:26;;;;;;;3.83;2.90;;;7.70;76.80;;;;;;4172116;28;20192;-66
2023/02/17 00:20:28;;;;;;;5.67;2.73;;;7.70;76.60;;;;;;4170615;28;20185;-67
2023/02/17 00:22:29;;;;;;;6.47;2.90;;;7.80;76.50;;;;;;4170572;28;20187;-67
2023/02/17 00:24:31;;;;;;;5.10;2.60;;;7.80;76.40;;;;;;4170749;28;20261;-66
2023/02/17 00:26:32;;;;;;;4.10;2.57;;;7.80;77.10;;;;;;4170758;28;20679;-66
2023/02/17 00:28:33;;;;;;;6.90;2.77;;;7.80;77.20;;;;;;4170247;28;20199;-67
2023/02/17 00:30:33;;;;;;;7.23;2.90;;;7.90;77.30;;;;;;4170647;28;20188;-67
2023/02/17 00:32:35;;;;;;;5.13;2.53;;;7.90;77.40;;;;;;4169466;28;20192;-68
2023/02/17 00:34:37;;;;;;;5.47;2.90;;;7.80;78.00;;;;;;4170558;28;20284;-68
2023/02/17 00:36:38;;;;;;;4.67;2.87;;;7.80;78.40;;;;;;4165728;28;20188;-67
2023/02/17 00:38:38;;;;;;;3.83;2.47;;;7.80;79.00;;;;;;4170625;28;20276;-67
2023/02/17 00:40:40;;;;;;;3.87;2.67;;;7.80;79.50;;;;;;4169731;28;20298;-67
2023/02/17 00:42:41;;;;;;;7.70;3.57;;;7.80;80.00;;;;;;4170881;28;20669;-67
2023/02/17 00:44:42;;;;;;;5.23;3.20;;;7.80;80.50;;;;;;4170837;28;20239;-67
2023/02/17 00:46:43;;;;;;;6.43;2.90;;;7.80;81.40;;;;;;4170815;28;20216;-67
2023/02/17 00:48:45;;;;;;;4.50;2.43;;;7.80;81.40;;;;;;4169316;28;21119;-67
2023/02/17 00:50:46;;;;;;;7.87;3.07;;;7.80;81.30;;;;;;4170915;28;20180;-68
2023/02/17 00:52:46;;;;;;;13.30;3.63;;;7.80;81.70;;;;;;4169013;28;20205;-67
2023/02/17 00:54:47;;;;;;;6.33;3.00;;;7.80;82.80;;;;;;4170428;28;20206;-68
2023/02/17 00:56:48;;;;;;;8.80;3.63;;;7.90;81.80;;;;;;4170464;28;20718;-67
2023/02/17 00:58:48;;;;;;;8.27;2.83;;;7.80;83.30;;;;;;4170153;28;20211;-68
2023/02/17 01:00:49;;;;;;;4.10;2.60;;;7.80;85.40;;;;;;4170453;28;20202;-68
2023/02/17 01:02:50;;;;;;;9.33;2.77;;;7.80;85.70;;;;;;4171444;28;20184;-67
2023/02/17 01:04:51;;;;;;;4.60;3.13;;;7.80;85.70;;;;;;4169954;28;20196;-68
2023/02/17 01:06:51;;;;;;;4.07;2.60;;;7.80;86.40;;;;;;4170193;28;20193;-67
2023/02/17 01:08:52;;;;;;;5.97;2.57;;;7.80;86.60;;;;;;4170688;28;20221;-67
2023/02/17 01:10:53;;;;;;;4.77;2.90;;;7.90;86.50;;;;;;4171593;28;20189;-67
2023/02/17 01:12:53;;;;;;;4.23;2.53;;;7.90;87.10;;;;;;4186408;28;20736;-67
2023/02/17 01:14:54;;;;;;;5.67;2.90;;;7.80;88.80;;;;;;4171538;28;20204;-67
2023/02/17 01:16:55;;;;;;;5.50;2.80;;;7.70;90.40;;;;;;4174416;28;20571;-68
2023/02/17 01:18:55;;;;;;;7.47;3.03;;;7.80;90.50;;;;;;4174404;28;20236;-67
2023/02/17 01:20:56;;;;;;;3.77;2.47;;;7.70;90.60;;;;;;4174629;28;20185;-67
2023/02/17 01:22:57;;;;;;;4.53;3.00;;;7.80;91.20;;;;;;4174338;28;20188;-67
2023/02/17 01:24:57;;;;;;;8.53;2.80;;;7.70;92.20;;;;;;4174491;28;20200;-67
2023/02/17 01:26:58;;;;;;;5.80;2.83;;;7.60;93.10;;;;;;4174560;28;20274;-67
2023/02/17 01:28:59;;;;;;;7.23;3.03;;;7.60;93.20;;;;;;4174325;28;20223;-68
2023/02/17 01:31:06;;;;;;;4.57;2.93;;;7.60;93.60;;;;;;4174031;28;20180;-68
2023/02/17 01:33:07;;;;;;;6.47;3.27;;;7.70;94.30;;;;;;4169975;28;20559;-67
2023/02/17 01:35:08;;;;;;;7.33;2.93;;;7.50;95.20;;;;;;4171956;28;20282;-68
2023/02/17 01:37:08;;;;;;;6.50;3.23;;;7.50;95.40;;;;;;4172966;28;20918;-68
2023/02/17 01:39:13;;;;;;;6.87;2.87;;;7.60;95.30;;;;;;4173914;28;20223;-68
2023/02/17 01:41:17;;;;;;;5.20;2.77;;;7.70;95.00;;;;;;4172942;28;20279;-68
2023/02/17 01:43:18;;;;;;;5.83;2.60;;;7.70;94.80;;;;;;4173121;28;20189;-68
2023/02/17 01:45:18;;;;;;;5.50;2.60;;;7.80;94.30;;;;;;4174324;28;20508;-68
2023/02/17 01:47:19;;;;;;;6.67;2.83;;;7.80;94.30;;;;;;4174041;28;20202;-68
2023/02/17 01:49:34;;;;;;;3.33;2.43;;;7.70;94.60;;;;;;4173998;28;20720;-69
2023/02/17 01:51:37;;;;;;;6.23;3.00;;;7.70;94.90;;;;;;4173346;28;20184;-68
2023/02/17 01:53:47;;;;;;;7.00;3.10;;;7.70;95.10;;;;;;4174091;28;20228;-68
2023/02/17 01:55:49;;;;;;;5.77;2.60;;;7.70;94.80;;;;;;4172686;28;20183;-68
2023/02/17 01:57:55;;;;;;;4.07;2.40;;;7.70;94.80;;;;;;4173884;28;20553;-68
2023/02/17 01:59:56;;;;;;;5.27;2.47;;;7.80;94.90;;;;;;4173201;28;20633;-68
2023/02/17 02:02:00;;;;;;;3.93;2.27;;;7.70;95.20;;;;;;4173972;28;20709;-70
2023/02/17 02:04:03;;;;;;;3.50;2.07;;;7.70;95.50;;;;;;4173858;28;20318;-69
2023/02/17 02:06:17;;;;;;;6.77;2.27;;;7.70;95.50;;;;;;4172622;28;20197;-69
2023/02/17 02:08:18;;;;;;;8.03;2.97;;;7.70;95.70;;;;;;4173202;28;20198;-68
2023/02/17 02:10:19;;;;;;;4.00;2.50;;;7.70;95.50;;;;;;4173043;28;20247;-71
2023/02/17 02:12:24;;;;;;;4.47;2.53;;;7.80;96.00;;;;;;4175670;28;20211;-69
2023/02/17 02:14:25;;;;;;;6.30;2.63;;;7.80;95.00;;;;;;4173619;28;20189;-68
2023/02/17 02:17:11;;;;;;;8.03;2.40;;;7.90;94.70;;;;;;4173598;28;20196;-68
2023/02/17 02:19:54;;;;;;;6.07;2.20;;;7.90;94.60;;;;;;4130411;28;20220;-68
2023/02/17 02:22:16;;;;;;;4.80;2.17;;;7.90;94.40;;;;;;4172573;28;20868;-68
2023/02/17 02:25:00;;;;;;;4.03;2.13;;;7.90;94.40;;;;;;4173250;28;20199;-68
2023/02/17 02:27:21;;;;;;;6.87;2.37;;;8.00;93.80;;;;;;4172843;28;20220;-68
2023/02/17 02:29:42;;;;;;;3.27;2.23;;;8.00;93.20;;;;;;4176406;28;20261;-68
2023/02/17 02:32:22;;;;;;;4.97;2.20;;;8.00;93.40;;;;;;4173100;28;20189;-68
2023/02/17 02:34:41;;;;;;;3.27;2.23;;;8.00;93.20;;;;;;4173100;28;20217;-68
2023/02/17 02:37:05;;;;;;;8.90;2.10;;;8.20;92.90;;;;;;4173251;28;20653;-68
2023/02/17 02:39:13;;;;;;;3.77;1.80;;;8.20;92.50;;;;;;4172522;28;20223;-69
2023/02/17 02:41:20;;;;;;;4.80;2.27;;;8.20;92.10;;;;;;4171858;28;20671;-70
2023/02/17 02:43:23;;;;;;;5.83;2.20;;;8.10;92.70;;;;;;4171746;28;20231;-68
2023/02/17 02:45:23;;;;;;;4.10;2.20;;;8.00;92.80;;;;;;4171709;28;20617;-68
2023/02/17 02:47:47;;;;;;;5.83;2.40;;;8.00;92.80;;;;;;4172831;28;20200;-68
2023/02/17 02:49:48;;;;;;;3.50;2.23;;;8.10;92.60;;;;;;4173243;28;20282;-68
2023/02/17 02:52:16;;;;;;;2.77;2.07;;;8.10;92.70;;;;;;4172905;28;20189;-67
2023/02/17 02:54:33;;;;;;;3.60;2.20;;;8.20;92.80;;;;;;4171441;28;20647;-68
2023/02/17 02:56:48;;;;;;;5.40;2.37;;;8.20;92.90;;;;;;4172791;28;20196;-69
2023/02/17 02:59:19;;;;;;;3.83;2.10;;;8.30;92.70;;;;;;4172583;28;20677;-68
2023/02/17 03:01:37;;;;;;;2.97;1.90;;;8.30;92.50;;;;;;4172673;28;20184;-68
2023/02/17 03:03:59;;;;;;;3.90;2.13;;;8.30;92.50;;;;;;4172544;28;20204;-68
2023/02/17 03:06:36;;;;;;;4.63;2.43;;;8.30;92.80;;;;;;4171200;28;20593;-68
2023/02/17 03:08:47;;;;;;;4.37;2.20;;;8.20;93.30;;;;;;4172610;28;20203;-68
2023/02/17 03:10:53;;;;;;;3.43;2.27;;;8.30;93.30;;;;;;4171554;28;20202;-69
2023/02/17 03:12:54;;;;;;;5.97;1.87;;;8.30;93.10;;;;;;4154526;28;20554;-68
2023/02/17 03:15:04;;;;;;;4.63;1.97;;;8.40;93.10;;;;;;4172542;28;20188;-68
2023/02/17 03:17:04;;;;;;;5.73;2.67;;;8.30;93.40;;;;;;4171269;28;20191;-68
2023/02/17 03:19:07;;;;;;;3.00;1.90;;;8.30;93.30;;;;;;4172081;28;20267;-70
2023/02/17 03:21:15;;;;;;;6.67;2.20;;;8.40;93.00;;;;;;4169274;28;20745;-67
2023/02/17 03:23:16;;;;;;;3.53;2.47;;;8.40;93.40;;;;;;4177963;28;20199;-68
2023/02/17 03:25:16;;;;;;;2.90;2.00;;;8.40;94.00;;;;;;4171302;28;20220;-68
2023/02/17 03:27:17;;;;;;;4.17;2.10;;;8.30;94.50;;;;;;4172603;28;20231;-68
2023/02/17 03:29:18;;;;;;;3.00;1.93;;;8.40;94.30;;;;;;4171836;28;20227;-68
2023/02/17 03:31:19;;;;;;;3.93;1.70;;;8.50;94.00;;;;;;4172330;28;20193;-69
2023/02/17 03:33:19;;;;;;;5.57;1.80;;;8.40;94.20;;;;;;4172395;28;20622;-68
2023/02/17 03:35:20;;;;;;;3.07;1.97;;;8.30;94.80;;;;;;4170818;28;20578;-68
2023/02/17 03:37:21;;;;;;;4.37;1.90;;;8.30;94.90;;;;;;4172706;28;20181;-68
2023/02/17 03:39:21;;;;;;;4.30;2.10;;;8.20;95.40;;;;;;4167522;28;20714;-67
2023/02/17 03:41:22;;;;;;;3.60;1.80;;;8.20;95.40;;;;;;4171668;28;20265;-70
2023/02/17 03:43:23;;;;;;;4.37;1.70;;;8.30;95.60;;;;;;4170185;28;20192;-67
2023/02/17 03:45:24;;;;;;;6.97;2.00;;;8.30;95.80;;;;;;4172652;28;20333;-68
2023/02/17 03:47:24;;;;;;;3.57;2.17;;;8.20;96.10;;;;;;4171387;28;20596;-68
2023/02/17 03:49:25;;;;;;;3.37;2.00;;;8.20;96.10;;;;;;4172275;28;20217;-68
2023/02/17 03:51:26;;;;;;;2.87;1.70;;;8.20;96.00;;;;;;4172613;28;20185;-68
2023/02/17 03:53:26;;;;;;;4.63;2.00;;;8.20;96.00;;;;;;4172623;28;20189;-68
2023/02/17 03:55:27;;;;;;;4.47;1.90;;;8.20;95.90;;;;;;4172611;28;20206;-68
2023/02/17 03:57:30;;;;;;;3.60;1.77;;;8.10;96.20;;;;;;4172591;28;20661;-68
2023/02/17 03:59:31;;;;;;;2.83;1.53;;;8.10;96.00;;;;;;4172312;28;20223;-70
2023/02/17 04:01:32;;;;;;;5.40;2.47;;;8.20;95.50;;;;;;4172405;28;20280;-68
2023/02/17 04:03:33;;;;;;;5.07;1.80;;;8.20;94.30;;;;;;4172545;28;20223;-67
2023/02/17 04:05:33;;;;;;;5.83;1.90;;;8.20;93.60;;;;;;4170919;28;20204;-68
2023/02/17 04:07:34;;;;;;;6.27;2.10;;;8.10;93.80;;;;;;4172012;28;20334;-67
2023/02/17 04:09:35;;;;;;;7.03;1.90;;;8.10;93.20;;;;;;4171742;28;20224;-68
2023/02/17 04:11:35;;;;;;;5.70;2.13;;;8.20;93.20;;;;;;4175814;28;20192;-67
2023/02/17 04:13:37;;;;;;;7.37;1.97;;;8.20;92.10;;;;;;4171981;28;20270;-68
2023/02/17 04:15:37;;;;;;;3.50;1.70;;;8.20;91.90;;;;;;4172001;28;20238;-68
2023/02/17 04:17:38;;;;;;;2.47;1.40;;;8.20;90.80;;;;;;4171874;28;20241;-67
2023/02/17 04:19:39;;;;;;;4.23;1.33;;;8.20;89.30;;;;;;4171746;28;20702;-67
2023/02/17 04:21:40;;;;;;;2.90;1.23;;;8.20;86.80;;;;;;4171425;28;20196;-68
2023/02/17 04:23:41;;;;;;;3.07;1.40;;;8.20;86.00;;;;;;4171753;28;20240;-67
2023/02/17 04:25:42;;;;;;;2.07;1.40;;;8.20;85.90;;;;;;4171719;28;20275;-68
2023/02/17 04:27:42;;;;;;;2.50;1.33;;;8.30;85.40;;;;;;4169948;28;20206;-67
2023/02/17 04:29:43;;;;;;;2.70;1.53;;;8.20;84.80;;;;;;4171085;28;20704;-67
2023/02/17 04:31:44;;;;;;;3.33;1.30;;;8.10;83.80;;;;;;4171590;28;20566;-67
2023/02/17 04:33:44;;;;;;;3.03;1.43;;;8.10;84.10;;;;;;4171717;28;20283;-68
2023/02/17 04:35:46;;;;;;;1.93;1.30;;;8.00;84.10;;;;;;4171373;28;20200;-67
2023/02/17 04:37:47;;;;;;;2.20;1.40;;;8.00;84.80;;;;;;4169807;28;20661;-68
2023/02/17 04:39:48;;;;;;;4.77;1.70;;;8.00;84.10;;;;;;4171420;28;20282;-67
2023/02/17 04:41:48;;;;;;;3.40;1.43;;;7.90;84.30;;;;;;4171474;28;20733;-68
2023/02/17 04:43:49;;;;;;;3.30;1.50;;;7.90;83.50;;;;;;4171663;28;20252;-68
2023/02/17 04:45:50;;;;;;;4.73;1.80;;;7.90;83.40;;;;;;4171470;28;20228;-67
2023/02/17 04:47:51;;;;;;;3.33;1.67;;;7.90;82.50;;;;;;4171237;28;20208;-67
2023/02/17 04:49:52;;;;;;;4.70;1.73;;;7.90;82.30;;;;;;4171411;28;20220;-67
2023/02/17 04:51:52;;;;;;;2.77;1.20;;;7.90;82.40;;;;;;4174417;28;20185;-68
2023/02/17 04:53:53;;;;;;;2.37;1.40;;;8.00;81.80;;;;;;4181711;28;20605;-67
2023/02/17 04:55:54;;;;;;;3.40;1.50;;;8.00;81.30;;;;;;4173631;28;20282;-67
2023/02/17 04:57:55;;;;;;;4.70;1.60;;;8.10;81.00;;;;;;4174360;28;20255;-67
2023/02/17 04:59:55;;;;;;;4.90;1.90;;;8.10;80.90;;;;;;4173333;28;20213;-67
2023/02/17 05:01:56;;;;;;;3.70;2.00;;;8.10;80.90;;;;;;4174654;28;20231;-67
2023/02/17 05:03:57;;;;;;;3.10;1.53;;;8.10;80.70;;;;;;4174867;28;20200;-67
2023/02/17 05:05:57;;;;;;;1.53;1.30;;;8.10;80.10;;;;;;4173275;28;20222;-68
2023/02/17 05:07:58;;;;;;;2.93;1.90;;;8.20;80.10;;;;;;4174174;28;20242;-67
2023/02/17 05:09:59;;;;;;;3.30;1.40;;;8.20;80.00;;;;;;4174238;28;20216;-67
2023/02/17 05:11:59;;;;;;;2.73;1.53;;;8.10;80.30;;;;;;4174552;28;20192;-67
2023/02/17 05:14:00;;;;;;;3.23;1.70;;;8.20;80.60;;;;;;4173336;28;20199;-67
2023/02/17 05:16:01;;;;;;;4.50;1.30;;;8.10;80.80;;;;;;4174251;28;20234;-68
2023/02/17 05:18:02;;;;;;;4.20;1.67;;;8.10;81.00;;;;;;4172857;28;20191;-67
2023/02/17 05:20:04;;;;;;;3.30;1.40;;;8.20;80.80;;;;;;4174238;28;20619;-67
2023/02/17 05:22:05;;;;;;;1.73;1.37;;;8.20;81.10;;;;;;4174123;28;20202;-67
2023/02/17 05:24:06;;;;;;;3.77;1.90;;;8.20;81.50;;;;;;4171614;28;20568;-67
2023/02/17 05:26:07;;;;;;;4.00;1.90;;;8.10;82.00;;;;;;4174647;28;20263;-70
2023/02/17 05:28:08;;;;;;;3.33;1.70;;;8.10;82.10;;;;;;4180664;28;20203;-67
2023/02/17 05:30:10;;;;;;;2.37;1.60;;;8.10;82.50;;;;;;4173035;28;20246;-67
2023/02/17 05:32:10;;;;;;;5.37;2.40;;;8.10;83.30;;;;;;4174427;28;20188;-67
2023/02/17 05:34:11;;;;;;;4.60;1.97;;;8.10;85.70;;;;;;4174847;28;20657;-68
2023/02/17 05:36:12;;;;;;;5.73;2.30;;;8.00;85.80;;;;;;4172110;28;20540;-67
2023/02/17 05:38:13;;;;;;;7.07;2.17;;;7.90;87.60;;;;;;4173205;28;20196;-68
2023/02/17 05:40:14;;;;;;;2.47;1.83;;;7.90;89.10;;;;;;4173488;28;20213;-67
2023/02/17 05:42:14;;;;;;;4.20;2.07;;;7.80;90.10;;;;;;4173548;28;20226;-68
2023/02/17 05:44:15;;;;;;;4.00;2.10;;;7.70;90.50;;;;;;4173380;28;20287;-68
2023/02/17 05:46:16;;;;;;;4.30;2.20;;;7.70;90.80;;;;;;4173254;28;20192;-67
2023/02/17 05:48:17;;;;;;;3.87;1.70;;;7.70;90.80;;;;;;4172969;28;20199;-68
2023/02/17 05:50:17;;;;;;;2.40;2.00;;;7.70;90.60;;;;;;4168762;28;20232;-67
2023/02/17 05:52:18;;;;;;;3.87;2.50;;;7.70;90.50;;;;;;4172941;28;20203;-68
2023/02/17 05:54:19;;;;;;;6.27;2.20;;;7.70;90.50;;;;;;4173005;28;20187;-68
2023/02/17 05:56:19;;;;;;;3.40;2.57;;;7.70;90.20;;;;;;4173006;28;20528;-68
2023/02/17 05:58:20;;;;;;;3.07;1.43;;;7.80;90.20;;;;;;4172787;28;20242;-67
2023/02/17 06:00:21;;;;;;;5.03;1.73;;;7.90;89.80;;;;;;4175099;28;20223;-68
2023/02/17 06:02:22;;;;;;;4.03;2.13;;;7.90;90.00;;;;;;4172670;28;20218;-67
2023/02/17 06:04:22;;;;;;;3.30;1.93;;;7.90;90.00;;;;;;4173167;28;20670;-67
2023/02/17 06:06:23;;;;;;;4.17;2.00;;;7.90;90.00;;;;;;4172960;28;20226;-68
2023/02/17 06:08:24;;;;;;;3.40;2.03;;;7.80;90.40;;;;;;4171414;28;20200;-67
2023/02/17 06:10:24;;;;;;;2.50;1.97;;;7.80;90.70;;;;;;4172786;28;20279;-67
2023/02/17 06:12:25;;;;;;;4.00;1.80;;;7.80;90.80;;;;;;4172772;28;20266;-68
2023/02/17 06:14:26;;;;;;;3.00;1.90;;;7.80;91.10;;;;;;4176641;28;20365;-67
2023/02/17 06:16:27;;;;;;;2.93;1.87;;;7.80;91.60;;;;;;4172701;28;20284;-68
2023/02/17 06:18:28;;;;;;;4.63;1.77;;;7.80;92.00;;;;;;4172540;28;20220;-68
2023/02/17 06:20:28;;;;;;;2.70;1.80;;;7.80;92.00;;;;;;4172856;28;20250;-67
2023/02/17 06:22:29;;;;;;;4.83;2.03;;;7.80;92.30;;;;;;4172803;28;20956;-67
2023/02/17 06:24:30;;;;;;;6.43;2.50;;;7.80;93.00;;;;;;4172700;28;20214;-68
2023/02/17 06:26:31;;;;;;;2.60;1.60;;;7.70;93.20;;;;;;4172625;28;20203;-67
2023/02/17 06:28:31;;;;;;;3.57;1.97;;;7.70;93.70;;;;;;4171768;28;20212;-68
2023/02/17 06:30:32;;;;;;;3.03;1.90;;;7.70;94.40;;;;;;4171138;28;20187;-67
2023/02/17 06:32:33;;;;;;;3.07;1.93;;;7.70;95.00;;;;;;4172395;28;20188;-68
2023/02/17 06:34:34;;;;;;;3.20;1.80;;;7.70;95.70;;;;;;4172299;28;20265;-67
2023/02/17 06:36:34;;;;;;;4.60;2.40;;;7.70;95.70;;;;;;4172719;28;20193;-68
2023/02/17 06:38:35;;;;;;;4.07;1.90;;;7.70;96.80;;;;;;4170852;28;20742;-68
2023/02/17 06:40:36;;;;;;;6.33;2.43;;;7.70;97.40;;;;;;4172337;28;20302;-67
2023/02/17 06:42:37;;;;;;;3.53;1.97;;;7.70;97.60;;;;;;4172217;28;20720;-68
2023/02/17 06:44:37;;;;;;;6.10;2.30;;;7.70;98.00;;;;;;4172121;28;20619;-69
2023/02/17 06:46:38;;;;;;;3.70;2.20;;;7.70;97.90;;;;;;4172353;28;20193;-67
2023/02/17 06:48:39;;;;;;;4.63;1.90;;;7.80;97.30;;;;;;4172007;28;20189;-67
2023/02/17 06:50:39;;;;;;;4.50;2.63;;;7.80;97.30;;;;;;4172329;28;20220;-68
2023/02/17 06:52:40;;;;;;;4.30;2.40;;;7.80;98.00;;;;;;4172278;28;20258;-68
2023/02/17 06:54:41;;;;;;;5.07;2.43;;;7.90;98.00;;;;;;4172358;28;20536;-67
2023/02/17 06:56:41;;;;;;;3.47;2.57;;;7.90;97.90;;;;;;4172366;28;20658;-68
2023/02/17 06:58:42;;;;;;;4.43;2.50;;;8.00;97.60;;;;;;4170710;28;20193;-67
2023/02/17 07:00:43;;;;;;;5.23;2.60;;;8.00;98.10;;;;;;4172206;28;20277;-67
2023/02/17 07:02:43;;;;;;;3.73;2.20;;;7.90;98.90;;;;;;4171535;28;20193;-68
2023/02/17 07:04:44;;;;;;;3.40;2.63;;;7.90;99.30;;;;;;4172403;28;20189;-67
2023/02/17 07:06:45;;;;;;;7.00;2.63;;;7.90;99.90;;;;;;4172157;28;20707;-67
2023/02/17 07:08:46;;;;;;;6.53;3.60;;;7.80;99.90;;;;;;4171665;28;20215;-67
2023/02/17 07:10:46;;;;;;;4.53;2.60;;;7.70;99.90;;;;;;4172082;28;20196;-67
2023/02/17 07:12:47;;;;;;;6.07;2.53;;;7.70;99.90;;;;;;4171598;28;20192;-67
2023/02/17 07:14:48;;;;;;;5.03;3.20;;;7.70;99.90;;;;;;4171699;28;20881;-67
2023/02/17 07:16:49;;;;;;;4.93;2.60;;;7.70;99.90;;;;;;4171909;28;20664;-67
2023/02/17 07:18:50;;;;;;;6.77;2.90;;;7.60;99.90;;;;;;4171631;28;20204;-67
2023/02/17 07:20:51;;;;;;;7.17;3.47;;;7.60;99.90;;;;;;4170362;28;20176;-67
2023/02/17 07:22:52;;;;;;;5.10;2.80;;;7.60;99.90;;;;;;4171937;28;20191;-67
2023/02/17 07:24:52;;;;;;;5.63;3.17;;;7.70;99.90;;;;;;4171928;28;20199;-68
2023/02/17 07:26:54;;;;;;;5.30;2.67;;;7.80;99.90;;;;;;4171718;28;20216;-67
2023/02/17 07:28:55;;;;;;;5.50;2.70;;;7.80;99.90;;;;;;4171159;28;20233;-67
2023/02/17 07:30:56;;;;;;;3.47;2.23;;;7.80;99.90;;;;;;4171801;28;20645;-67
2023/02/17 07:32:57;;;;;;;4.03;2.23;;;7.70;99.90;;;;;;4170382;28;20198;-67
2023/02/17 07:34:57;;;;;;;3.10;2.23;;;7.70;99.90;;;;;;4171670;28;20563;-67
2023/02/17 07:36:58;;;;;;;4.23;2.40;;;7.70;99.90;;;;;;4170303;28;20244;-67
2023/02/17 07:38:59;;;;;;;3.77;2.20;;;7.60;99.90;;;;;;4169985;28;20201;-67
2023/02/17 07:41:11;;;;;;;3.57;1.90;;;7.50;99.90;;;;;;4171501;28;20185;-68
2023/02/17 07:43:12;;;;;;;4.77;2.30;;;7.50;99.90;;;;;;4171221;28;20565;-68
2023/02/17 07:45:13;;;;;;;2.03;1.70;;;7.50;99.90;;;;;;4171763;28;20206;-68
2023/02/17 07:47:13;;;;;;;2.73;1.90;;;7.50;99.90;;;;;;4171778;28;20185;-67
2023/02/17 07:49:14;;;;;;;4.17;2.17;;;7.50;99.90;;;;;;4171459;28;20701;-68
2023/02/17 07:51:20;;;;;;;3.17;2.13;;;7.50;99.90;;;;;;4171476;28;20199;-68
2023/02/17 07:53:21;;;;;;;4.27;2.10;;;7.60;99.90;;;;;;4170234;28;20721;-68
2023/02/17 07:55:23;;;;;;;4.00;2.70;;;7.70;99.90;;;;;;4171396;28;20180;-68
2023/02/17 07:57:23;;;;;;;4.10;2.37;;;7.70;99.90;;;;;;4170117;28;20189;-68
2023/02/17 07:59:24;;;;;;;3.87;2.63;;;7.70;99.90;;;;;;4165822;28;20573;-68
2023/02/17 08:01:25;;;;;;;3.57;2.30;;;7.70;99.90;;;;;;4174119;28;20854;-68
2023/02/17 08:03:26;;;;;;;4.33;2.57;;;7.70;99.90;;;;;;4171328;28;20184;-68
2023/02/17 08:05:27;;;;;;;4.63;2.67;;;7.80;99.90;;;;;;4171062;28;20692;-68
2023/02/17 08:07:27;;;;;;;7.43;3.33;;;7.90;99.90;;;;;;4174208;28;20551;-68
2023/02/17 08:14:06;;;;;;;5.63;2.80;;;8.00;99.90;;;;;;4170150;28;20227;-68
2023/02/17 08:16:07;;;;;;;4.33;3.10;;;8.00;99.90;;;;;;4170957;28;20189;-68
2023/02/17 08:18:08;;;;;;;4.50;2.70;;;8.00;99.90;;;;;;4169501;28;20662;-68
2023/02/17 08:20:09;;;;;;;3.83;2.50;;;8.00;99.90;;;;;;4171168;28;20739;-68
2023/02/17 08:22:10;;;;;;;3.93;3.47;;;8.10;99.90;;;;;;4171041;28;20270;-68
2023/02/17 08:24:11;;;;;;;4.70;2.40;;;8.10;99.90;;;;;;4170797;28;20215;-69
2023/02/17 08:26:11;;;;;;;4.77;2.40;;;8.20;99.90;;;;;;4170099;28;20242;-68
2023/02/17 08:28:13;;;;;;;14.07;3.33;;;8.30;99.90;;;;;;4169268;28;20196;-68
2023/02/17 08:30:13;;;;;;;5.43;2.03;;;8.30;99.90;;;;;;4176458;28;20223;-68
2023/02/17 08:32:16;;;;;;;3.87;2.43;;;8.30;99.90;;;;;;4169757;28;20197;-68
2023/02/17 08:34:17;;;;;;;4.63;2.33;;;8.40;99.90;;;;;;4168353;28;20189;-68
2023/02/17 08:36:21;;;;;;;4.17;2.30;;;8.40;99.90;;;;;;4168210;28;20289;-70
2023/02/17 08:38:21;;;;;;;3.30;1.93;;;8.50;99.90;;;;;;4169626;28;20177;-68
2023/02/17 08:40:22;;;;;;;3.53;2.00;;;8.60;99.90;;;;;;4169915;28;20218;-68
2023/02/17 08:42:25;;;;;;;6.33;2.10;;;8.70;99.90;;;;;;4169594;28;20298;-68
2023/02/17 08:44:26;;;;;;;2.70;1.60;;;8.70;99.90;;;;;;4169654;28;20192;-68
2023/02/17 08:46:28;;;;;;;2.40;1.70;;;8.70;99.90;;;;;;4170788;28;20212;-69
2023/02/17 08:48:28;;;;;;;2.03;1.67;;;8.70;99.90;;;;;;4170685;28;20184;-68
2023/02/17 08:50:31;;;;;;;3.03;2.00;;;8.70;99.90;;;;;;4170912;28;20218;-68
2023/02/17 08:52:34;;;;;;;3.87;2.07;;;8.80;99.90;;;;;;4170626;28;20184;-68
2023/02/17 08:54:34;;;;;;;3.57;1.67;;;8.90;99.90;;;;;;4170442;28;20184;-68
2023/02/17 08:56:37;;;;;;;2.83;1.67;;;8.90;99.90;;;;;;4167758;28;20194;-69
2023/02/17 08:58:38;;;;;;;4.77;1.50;;;8.90;99.90;;;;;;4171487;28;20188;-70
2023/02/17 09:00:39;;;;;;;4.80;1.87;;;9.00;99.90;;;;;;4175489;28;20180;-66
2023/02/17 09:02:42;;;;;;;2.97;1.57;;;9.10;99.90;;;;;;4177540;28;20194;-67
2023/02/17 09:04:43;;;;;;;1.93;1.73;;;9.20;99.90;;;;;;4176650;28;20231;-68
2023/02/17 09:06:48;;;;;;;5.20;1.60;;;9.00;99.90;;;;;;4175194;28;20274;-68
2023/02/17 09:08:49;;;;;;;3.37;1.90;;;9.00;99.90;;;;;;4174356;28;20227;-68
2023/02/17 09:10:51;;;;;;;7.00;2.20;;;9.10;99.90;;;;;;4175752;28;20214;-68
2023/02/17 09:12:52;;;;;;;4.40;2.30;;;8.90;99.90;;;;;;4167293;28;20654;-69
2023/02/17 09:14:52;;;;;;;2.63;1.77;;;8.90;99.90;;;;;;4174943;28;20188;-68
2023/02/17 09:16:55;;;;;;;4.13;2.10;;;8.80;99.90;;;;;;4174629;28;20192;-68
2023/02/17 09:18:55;;;;;;;2.47;1.60;;;8.90;99.90;;;;;;4173637;28;20204;-67
2023/02/17 09:20:59;;;;;;;2.40;1.80;;;8.90;99.90;;;;;;4173990;28;20188;-68
2023/02/17 09:22:59;;;;;;;4.23;2.33;;;8.80;99.90;;;;;;4174748;28;20212;-69
2023/02/17 09:25:00;;;;;;;4.77;2.20;;;8.90;99.90;;;;;;4173054;28;20223;-69
2023/02/17 09:27:01;;;;;;;3.93;1.60;;;9.00;99.90;;;;;;4172961;28;20192;-68
2023/02/17 09:29:03;;;;;;;2.30;1.50;;;9.10;99.90;;;;;;4169950;28;20287;-67
2023/02/17 09:31:10;;;;;;;3.33;1.70;;;9.30;99.90;;;;;;4173525;28;20662;-68
2023/02/17 09:33:10;;;;;;;3.73;1.80;;;9.40;99.90;;;;;;4168913;28;20185;-69
2023/02/17 09:35:16;;;;;;;5.13;1.93;;;9.30;99.90;;;;;;4174333;28;20180;-70
2023/02/17 09:37:16;;;;;;;2.10;1.70;;;9.20;99.90;;;;;;4173290;28;20307;-69
2023/02/17 09:39:17;;;;;;;3.10;1.73;;;9.20;99.90;;;;;;4174971;28;20728;-69
2023/02/17 09:41:32;;;;;;;2.37;1.47;;;9.20;99.90;;;;;;4173518;28;20284;-69
2023/02/17 09:43:33;;;;;;;2.70;1.57;;;9.20;99.90;;;;;;4173359;28;20192;-70
2023/02/17 09:45:35;;;;;;;4.93;1.67;;;9.20;99.90;;;;;;4171984;28;20588;-70
2023/02/17 09:47:59;;;;;;;1.83;1.20;;;9.20;99.90;;;;;;4171782;28;20193;-68
2023/02/17 09:50:10;;;;;;;3.87;1.50;;;9.10;99.90;;;;;;4171911;28;20300;-68
2023/02/17 09:52:28;;;;;;;10.37;3.67;;;9.10;99.90;;;;;;4171961;28;20569;-69
2023/02/17 09:54:42;;;;;;;2.30;1.47;;;9.10;99.90;;;;;;4170656;28;20252;-70
2023/02/17 09:56:47;;;;;;;2.57;1.70;;;9.10;99.90;;;;;;4173221;28;20279;-68
2023/02/17 09:59:18;;;;;;;3.83;1.60;;;9.20;99.90;;;;;;4172552;28;20212;-69
2023/02/17 10:01:24;;;;;;;2.93;1.23;;;9.20;99.90;;;;;;4170431;28;20203;-69
2023/02/17 10:03:42;;;;;;;7.83;2.13;;;9.20;99.90;;;;;;4171512;28;20238;-69
2023/02/17 10:05:58;;;;;;;2.47;1.40;;;9.20;99.90;;;;;;4172022;28;20283;-69
2023/02/17 10:08:16;;;;;;;3.70;1.40;;;9.40;99.90;;;;;;4172892;28;20180;-69
2023/02/17 10:10:30;;;;;;;2.10;1.37;;;9.90;99.90;;;;;;4172445;28;20219;-69
2023/02/17 10:12:37;;;;;;;1.63;1.20;;;10.40;99.90;;;;;;4173043;28;20652;-69
2023/02/17 10:14:49;;;;;;;1.93;1.10;;;10.50;99.90;;;;;;4171694;28;20302;-68
2023/02/17 10:17:02;;;;;;;1.40;1.13;;;10.80;99.30;;;;;;4172891;28;20184;-69
2023/02/17 10:19:29;;;;;;;2.80;1.40;;;10.80;99.20;;;;;;4171313;28;20204;-69
2023/02/17 10:21:38;;;;;;;1.90;1.30;;;10.70;99.60;;;;;;4163762;28;20212;-69
2023/02/17 10:23:38;;;;;;;1.37;1.23;;;10.80;99.60;;;;;;4172176;28;20567;-69
2023/02/17 10:25:51;;;;;;;3.57;1.60;;;10.90;99.10;;;;;;4171886;28;20193;-69
2023/02/17 10:28:07;;;;;;;2.30;1.27;;;11.00;99.00;;;;;;4172715;28;20851;-69
2023/02/17 10:30:16;;;;;;;4.93;1.40;;;11.20;98.00;;;;;;4172326;28;20764;-69
2023/02/17 10:32:25;;;;;;;9.87;1.43;;;10.90;99.20;;;;;;4172794;28;20193;-69
2023/02/17 10:34:50;;;;;;;4.77;1.20;;;10.90;99.90;;;;;;4171563;28;20707;-69
2023/02/17 10:37:04;;;;;;;1.13;0.90;;;11.10;99.20;;;;;;4174641;28;20188;-70
2023/02/17 10:39:52;;;;;;;1.00;0.90;;;11.30;97.50;;;;;;4172971;28;20223;-69
2023/02/17 10:41:54;;;;;;;2.50;1.50;;;11.00;99.20;;;;;;4165666;28;20732;-69
2023/02/17 10:43:55;;;;;;;1.40;1.30;;;10.70;99.90;;;;;;4172422;28;20192;-69
2023/02/17 10:45:58;;;;;;;1.87;1.43;;;10.60;99.90;;;;;;4172250;28;20231;-69
2023/02/17 10:48:13;;;;;;;1.53;1.00;;;10.50;99.90;;;;;;4170861;28;20192;-69
2023/02/17 10:50:20;;;;;;;3.30;1.30;;;10.50;99.90;;;;;;4172140;28;20228;-69
2023/02/17 10:52:29;;;;;;;1.37;1.10;;;10.50;99.90;;;;;;4171521;28;20180;-69
2023/02/17 10:54:41;;;;;;;2.17;1.30;;;10.50;99.90;;;;;;4171185;28;20189;-69
2023/02/17 10:56:50;;;;;;;1.77;1.10;;;10.60;99.90;;;;;;4171070;28;20199;-69